Time;durP1;ratioP1;P1;durP2;ratioP2;P2;SDS_P1;SDS_P2;PMS_P1;PMS_P2;Temp;Humidity;BMP_temperature;BMP_pressure;BME280_temperature;BME280_humidity;BME280_pressure;Samples;Min_cycle;Max_cycle;Signal;HPM_P1;HPM_P2
2022/09/11 00:00:42;;;;;;;4.53;1.52;;;;;;;12.14;100.00;95596.28;5079981;28;20044;-77
2022/09/11 00:03:26;;;;;;;2.35;1.20;;;;;;;12.12;100.00;95603.66;5084961;28;20378;-79
2022/09/11 00:05:52;;;;;;;3.20;1.48;;;;;;;12.08;100.00;95592.09;5090866;28;20047;-78
2022/09/11 00:08:20;;;;;;;3.13;1.50;;;;;;;12.09;100.00;95593.66;5089036;28;20070;-79
2022/09/11 00:10:47;;;;;;;6.13;1.50;;;;;;;12.15;100.00;95592.56;5087768;28;20074;-78
2022/09/11 00:13:21;;;;;;;3.90;1.70;;;;;;;12.11;100.00;95586.25;5089526;28;20127;-78
2022/09/11 00:15:51;;;;;;;2.50;1.50;;;;;;;12.10;100.00;95584.69;5088121;28;20497;-78
2022/09/11 00:18:20;;;;;;;2.13;1.40;;;;;;;12.10;100.00;95580.19;5090544;28;20429;-78
2022/09/11 00:20:51;;;;;;;2.42;1.40;;;;;;;12.10;100.00;95584.69;5088570;28;20119;-78
2022/09/11 00:23:18;;;;;;;2.45;1.42;;;;;;;12.10;100.00;95580.19;5085868;28;20487;-78
2022/09/11 00:25:45;;;;;;;4.88;1.52;;;;;;;12.16;100.00;95583.59;5081869;28;20053;-78
2022/09/11 00:28:29;;;;;;;3.65;1.42;;;;;;;12.09;100.00;95577.84;5088714;28;20063;-78
2022/09/11 00:31:04;;;;;;;10.02;2.13;;;;;;;12.10;100.00;95582.06;5087160;28;20401;-77
2022/09/11 00:33:30;;;;;;;7.00;1.77;;;;;;;12.13;100.00;95578.88;5080215;28;20044;-77
2022/09/11 00:36:06;;;;;;;5.78;1.70;;;;;;;12.09;100.00;95577.84;5089767;28;20448;-78
2022/09/11 00:38:34;;;;;;;4.95;1.60;;;;;;;12.06;100.00;95573.13;5087537;28;20048;-78
2022/09/11 00:41:02;;;;;;;2.70;1.60;;;;;;;12.02;100.00;95562.31;5086771;28;20551;-79
2022/09/11 00:43:29;;;;;;;7.05;1.80;;;;;;;12.10;100.00;95574.16;5087708;28;20421;-78
2022/09/11 00:46:02;;;;;;;5.15;1.63;;;;;;;12.06;100.00;95584.44;5088942;28;20044;-77
2022/09/11 00:48:33;;;;;;;3.72;1.58;;;;;;;12.02;100.00;95572.09;5072967;28;20119;-77
2022/09/11 00:51:02;;;;;;;3.40;1.67;;;;;;;12.01;100.00;95570.50;5085848;28;20119;-78
2022/09/11 00:53:32;;;;;;;3.22;1.63;;;;;;;12.03;100.00;95578.94;5086210;28;20123;-78
2022/09/11 00:56:01;;;;;;;2.55;1.73;;;;;;;12.01;100.00;95575.78;5088287;28;20511;-78
2022/09/11 00:58:32;;;;;;;3.80;1.42;;;;;;;12.04;100.00;95575.22;5086797;28;20768;-79
2022/09/11 01:00:57;;;;;;;3.38;1.75;;;;;;;12.03;100.00;95585.00;5088888;28;20116;-79
2022/09/11 01:03:24;;;;;;;4.88;1.60;;;;;;;12.01;100.00;95581.06;5080516;28;20517;-80
2022/09/11 01:05:51;;;;;;;6.13;2.45;;;;;;;12.02;100.00;95587.91;5084130;28;20112;-77
2022/09/11 01:08:17;;;;;;;2.83;1.45;;;;;;;12.04;100.00;95586.59;5085664;28;20040;-78
2022/09/11 01:11:02;;;;;;;6.03;1.73;;;;;;;12.04;100.00;95577.88;5083191;28;20036;-78
2022/09/11 01:13:40;;;;;;;3.38;1.70;;;;;;;12.05;100.00;95582.09;5082587;28;20036;-76
2022/09/11 01:16:31;;;;;;;3.30;1.50;;;;;;;12.06;100.00;95578.41;5088021;28;20036;-77
2022/09/11 01:19:36;;;;;;;5.78;1.77;;;;;;;12.04;100.00;95580.50;5087668;28;20113;-78
2022/09/11 01:22:32;;;;;;;2.80;1.63;;;;;;;12.02;100.00;95578.16;5089900;28;21790;-78
2022/09/11 01:25:18;;;;;;;3.83;1.73;;;;;;;11.96;100.00;95572.13;5070512;28;20421;-79
2022/09/11 01:28:08;;;;;;;3.78;1.67;;;;;;;12.05;100.00;95576.81;5081656;28;20048;-78
2022/09/11 01:30:42;;;;;;;3.33;1.60;;;;;;;12.06;100.00;95575.75;5083274;28;20040;-77
2022/09/11 01:33:27;;;;;;;2.63;1.60;;;;;;;12.06;100.00;95567.84;5089203;28;20059;-77
2022/09/11 01:35:57;;;;;;;2.17;1.70;;;;;;;12.01;100.00;95563.41;5088659;28;20089;-78
2022/09/11 01:38:45;;;;;;;3.55;1.70;;;;;;;11.99;100.00;95570.00;5084744;28;20066;-78
2022/09/11 01:41:28;;;;;;;2.58;1.52;;;;;;;11.99;100.00;95567.38;5086261;28;20051;-78
2022/09/11 01:44:02;;;;;;;4.47;1.70;;;;;;;11.99;100.00;95572.66;5086626;28;20557;-77
2022/09/11 01:46:33;;;;;;;4.20;1.73;;;;;;;11.99;100.00;95567.38;5088324;28;20040;-78
2022/09/11 01:49:38;;;;;;;3.92;1.70;;;;;;;12.01;100.00;95570.50;5075578;28;20063;-77
2022/09/11 01:52:08;;;;;;;4.43;1.63;;;;;;;11.96;100.00;95572.13;5076517;28;20048;-77
2022/09/11 01:54:41;;;;;;;5.47;1.70;;;;;;;12.02;100.00;95572.09;5105161;28;20305;-77
2022/09/11 01:57:13;;;;;;;2.33;1.13;;;;;;;12.02;100.00;95572.09;5086210;28;20634;-77
2022/09/11 01:59:44;;;;;;;2.58;1.52;;;;;;;12.05;100.00;95571.53;5084925;28;20406;-77
2022/09/11 02:02:12;;;;;;;3.90;1.50;;;;;;;12.02;100.00;95572.09;5086566;28;20051;-77
2022/09/11 02:04:44;;;;;;;2.63;1.52;;;;;;;12.03;100.00;95563.13;5089163;28;20111;-78
2022/09/11 02:07:16;;;;;;;3.80;1.60;;;;;;;12.07;100.00;95569.44;5087264;28;20040;-77
2022/09/11 02:09:52;;;;;;;4.88;1.65;;;;;;;12.01;100.00;95565.25;5096369;28;20502;-78
2022/09/11 02:12:22;;;;;;;5.72;1.98;;;;;;;12.04;100.00;95560.22;5082046;28;20039;-78
2022/09/11 02:14:50;;;;;;;3.63;1.80;;;;;;;12.07;100.00;95575.47;5080419;28;20112;-78
2022/09/11 02:17:37;;;;;;;6.30;1.63;;;;;;;12.11;100.00;95565.16;5084341;28;20059;-77
2022/09/11 02:20:03;;;;;;;2.75;1.70;;;;;;;12.10;100.00;95571.50;5098290;28;20036;-78
2022/09/11 02:22:29;;;;;;;3.45;1.67;;;;;;;12.12;100.00;95572.00;5102306;28;20044;-78
2022/09/11 02:24:55;;;;;;;6.85;1.88;;;;;;;12.09;100.00;95560.16;5098376;28;20090;-78
2022/09/11 02:27:26;;;;;;;2.40;1.60;;;;;;;12.12;100.00;95561.44;5095001;28;20047;-79
2022/09/11 02:29:53;;;;;;;4.22;1.60;;;;;;;12.09;100.00;95556.72;5094743;28;20075;-78
2022/09/11 02:32:21;;;;;;;3.53;1.52;;;;;;;12.16;100.00;95557.19;5072996;28;20039;-78
2022/09/11 02:34:49;;;;;;;3.83;1.80;;;;;;;12.17;100.00;95558.78;5087749;28;20509;-78
2022/09/11 02:37:20;;;;;;;5.78;1.60;;;;;;;12.17;100.00;95558.78;5089998;28;20545;-78
2022/09/11 02:40:01;;;;;;;3.22;1.55;;;;;;;12.16;100.00;95556.44;5099281;28;20068;-79
2022/09/11 02:42:49;;;;;;;5.32;1.88;;;;;;;12.12;100.00;95551.72;5082836;28;20059;-79
2022/09/11 02:45:37;;;;;;;2.00;1.58;;;;;;;12.09;100.00;95556.72;5091101;28;20036;-79
2022/09/11 02:48:49;;;;;;;4.80;1.98;;;;;;;12.14;100.00;95559.34;5110175;27;20047;-78
2022/09/11 02:51:54;;;;;;;5.63;2.00;;;;;;;12.13;100.00;95555.13;5061858;28;20062;-79
2022/09/11 02:54:33;;;;;;;2.25;1.58;;;;;;;12.10;100.00;95558.31;5101885;28;20407;-78
2022/09/11 02:57:02;;;;;;;3.92;1.77;;;;;;;12.07;100.00;95558.88;5102057;28;20044;-78
2022/09/11 02:59:37;;;;;;;2.75;1.60;;;;;;;12.07;100.00;95558.88;5096129;28;20423;-78
2022/09/11 03:02:08;;;;;;;3.80;1.77;;;;;;;12.06;100.00;95562.56;5092135;28;20169;-77
2022/09/11 03:04:35;;;;;;;2.97;1.70;;;;;;;12.03;100.00;95563.91;5092219;28;20047;-79
2022/09/11 03:07:01;;;;;;;2.15;1.58;;;;;;;11.95;100.00;95552.09;5103153;28;20652;-79
2022/09/11 03:09:26;;;;;;;3.10;1.60;;;;;;;11.97;100.00;95554.47;5085470;28;20044;-78
2022/09/11 03:11:52;;;;;;;3.10;1.35;;;;;;;11.98;100.00;95555.25;5099441;28;20089;-79
2022/09/11 03:14:18;;;;;;;5.03;1.90;;;;;;;11.94;100.00;95545.25;5098066;28;20051;-78
2022/09/11 03:16:44;;;;;;;4.68;1.83;;;;;;;11.96;100.00;95552.88;5094033;28;20101;-79
2022/09/11 03:19:10;;;;;;;2.60;1.60;;;;;;;11.99;100.00;95547.06;5090899;28;20409;-79
2022/09/11 03:21:36;;;;;;;3.50;1.90;;;;;;;11.94;100.00;95552.38;5091787;28;20420;-79
2022/09/11 03:24:02;;;;;;;5.30;1.70;;;;;;;11.93;100.00;95553.41;5083467;28;20040;-79
2022/09/11 03:26:28;;;;;;;4.18;1.80;;;;;;;11.94;100.00;95555.03;5095556;28;20048;-79
2022/09/11 03:28:53;;;;;;;3.88;1.90;;;;;;;11.90;100.00;95544.19;5091801;28;20502;-77
2022/09/11 03:31:19;;;;;;;2.40;1.70;;;;;;;11.92;100.00;95552.63;5089006;28;20490;-77
2022/09/11 03:33:45;;;;;;;2.70;1.63;;;;;;;11.90;100.00;95554.75;5086679;28;20043;-78
2022/09/11 03:36:11;;;;;;;6.85;1.90;;;;;;;11.94;100.00;95545.25;5091651;28;20051;-79
2022/09/11 03:38:36;;;;;;;4.90;1.60;;;;;;;11.91;100.00;95551.06;5090242;28;20688;-78
2022/09/11 03:41:02;;;;;;;2.92;1.80;;;;;;;11.85;100.00;95544.25;5090947;28;20051;-78
2022/09/11 03:43:28;;;;;;;5.28;1.80;;;;;;;11.92;100.00;95542.09;5096259;28;20044;-78
2022/09/11 03:45:54;;;;;;;5.18;1.52;;;;;;;11.96;100.00;95548.38;5094449;28;20520;-79
2022/09/11 03:48:19;;;;;;;1.92;1.50;;;;;;;12.01;100.00;95544.13;5099224;28;20048;-78
2022/09/11 03:50:46;;;;;;;2.47;1.40;;;;;;;11.99;100.00;95546.28;5087741;28;20074;-79
2022/09/11 03:53:13;;;;;;;3.25;1.70;;;;;;;11.98;100.00;95547.34;5098742;28;20047;-78
2022/09/11 03:55:39;;;;;;;1.92;1.25;;;;;;;11.96;100.00;95545.75;5090704;28;20036;-78
2022/09/11 03:58:06;;;;;;;3.95;1.73;;;;;;;11.92;100.00;95536.81;5098493;28;20127;-78
2022/09/11 04:00:32;;;;;;;3.05;1.63;;;;;;;11.92;100.00;95531.53;5086437;28;20485;-79
2022/09/11 04:02:59;;;;;;;3.08;1.60;;;;;;;11.92;100.00;95542.09;5095287;28;20119;-78
2022/09/11 04:05:25;;;;;;;5.07;1.40;;;;;;;11.88;100.00;95533.16;5103726;28;20055;-78
2022/09/11 04:07:51;;;;;;;3.05;1.70;;;;;;;11.95;100.00;95541.56;5092324;28;20040;-79
2022/09/11 04:10:19;;;;;;;3.85;1.50;;;;;;;11.92;100.00;95542.09;5099070;28;20036;-77
2022/09/11 04:12:45;;;;;;;3.53;1.60;;;;;;;11.87;100.00;95544.75;5087063;28;20044;-78
2022/09/11 04:15:11;;;;;;;3.15;1.67;;;;;;;11.82;100.00;95536.88;5083528;28;20066;-78
2022/09/11 04:17:37;;;;;;;6.93;1.70;;;;;;;11.90;100.00;95538.94;5091632;28;20040;-77
2022/09/11 04:20:03;;;;;;;2.53;1.50;;;;;;;11.92;100.00;95542.09;5104900;28;20035;-78
2022/09/11 04:22:29;;;;;;;3.05;1.48;;;;;;;11.89;100.00;95537.34;5090013;28;20409;-78
2022/09/11 04:24:55;;;;;;;6.78;1.80;;;;;;;11.87;100.00;95528.94;5106596;28;20066;-78
2022/09/11 04:27:22;;;;;;;4.70;1.80;;;;;;;12.00;100.00;95532.81;5091600;28;20052;-78
2022/09/11 04:29:47;;;;;;;4.00;1.58;;;;;;;11.94;100.00;95534.72;5081063;28;20037;-78
2022/09/11 04:32:13;;;;;;;3.30;1.70;;;;;;;11.94;100.00;95534.72;5080654;28;20072;-78
2022/09/11 04:34:39;;;;;;;1.30;1.20;;;;;;;11.97;100.00;95528.09;5103724;28;20528;-79
2022/09/11 04:37:05;;;;;;;2.80;1.50;;;;;;;11.94;100.00;95532.06;5089613;28;20036;-78
2022/09/11 04:39:31;;;;;;;3.40;1.73;;;;;;;11.95;100.00;95535.47;5108650;28;20036;-79
2022/09/11 04:41:56;;;;;;;4.43;2.13;;;;;;;11.94;100.00;95533.94;5105292;28;20115;-79
2022/09/11 04:44:25;;;;;;;1.80;1.48;;;;;;;12.00;100.00;95538.09;5094030;28;20103;-79
2022/09/11 04:46:51;;;;;;;2.85;1.58;;;;;;;11.95;100.00;95531.00;5097082;28;20044;-76
2022/09/11 04:49:16;;;;;;;3.90;1.65;;;;;;;11.93;100.00;95546.31;5092144;28;20048;-78
2022/09/11 04:51:42;;;;;;;2.90;1.33;;;;;;;11.98;100.00;95544.69;5089232;28;20398;-78
2022/09/11 04:54:12;;;;;;;7.78;2.00;;;;;;;11.90;100.00;95541.56;5096782;28;20059;-78
2022/09/11 04:56:38;;;;;;;3.55;1.83;;;;;;;11.94;100.00;95542.63;5092955;28;20087;-78
2022/09/11 04:59:14;;;;;;;3.65;1.88;;;;;;;11.96;100.00;95548.38;5092899;28;20063;-77
2022/09/11 05:01:42;;;;;;;2.05;1.50;;;;;;;11.95;100.00;95546.84;5093868;28;20060;-77
2022/09/11 05:04:17;;;;;;;2.63;1.27;;;;;;;11.98;100.00;95550.75;5128927;28;20041;-76
2022/09/11 05:06:47;;;;;;;3.25;1.80;;;;;;;11.99;100.00;95562.09;5115114;28;20024;-76
2022/09/11 05:09:13;;;;;;;2.42;1.60;;;;;;;11.98;100.00;95557.88;5110364;28;20117;-76
2022/09/11 05:11:39;;;;;;;4.10;2.13;;;;;;;11.96;100.00;95558.94;5128330;28;20023;-76
2022/09/11 05:14:05;;;;;;;2.28;1.70;;;;;;;11.93;100.00;95554.22;5130235;28;20031;-76
2022/09/11 05:16:33;;;;;;;5.72;1.98;;;;;;;11.89;100.00;95547.88;5128590;28;20069;-76
2022/09/11 05:19:00;;;;;;;2.63;1.50;;;;;;;11.89;100.00;95542.63;5129962;28;20069;-76
2022/09/11 05:21:26;;;;;;;6.53;1.98;;;;;;;11.93;100.00;95542.88;5128227;28;20072;-76
2022/09/11 05:23:54;;;;;;;3.72;1.85;;;;;;;11.90;100.00;95554.75;5111869;28;20053;-76
2022/09/11 05:26:31;;;;;;;3.67;1.92;;;;;;;11.91;100.00;95556.31;5129315;28;20052;-76
2022/09/11 05:29:03;;;;;;;6.78;2.00;;;;;;;11.93;100.00;95559.50;5118845;28;20027;-76
2022/09/11 05:31:30;;;;;;;4.68;2.00;;;;;;;11.89;100.00;95558.44;5122982;28;20048;-76
2022/09/11 05:33:57;;;;;;;2.78;1.58;;;;;;;11.91;100.00;95556.31;5115779;28;20020;-75
2022/09/11 05:36:23;;;;;;;7.18;1.60;;;;;;;12.00;100.00;95568.97;5116686;28;20079;-76
2022/09/11 05:38:48;;;;;;;5.13;2.40;;;;;;;11.93;100.00;95554.22;5103899;28;20066;-78
2022/09/11 05:41:16;;;;;;;5.45;1.90;;;;;;;12.03;100.00;95563.13;5099089;28;20489;-78
2022/09/11 05:43:42;;;;;;;10.52;1.90;;;;;;;12.03;100.00;95568.41;5087275;28;20501;-78
2022/09/11 05:46:11;;;;;;;3.80;2.00;;;;;;;12.03;100.00;95568.41;5099111;28;20043;-78
2022/09/11 05:48:37;;;;;;;6.05;1.90;;;;;;;12.17;100.00;95569.34;5084289;28;20096;-77
2022/09/11 05:51:09;;;;;;;3.63;1.67;;;;;;;12.15;100.00;95571.44;5089091;28;20039;-78
2022/09/11 05:53:36;;;;;;;4.57;2.10;;;;;;;12.16;100.00;95575.66;5093125;28;20496;-79
2022/09/11 05:56:11;;;;;;;4.60;2.00;;;;;;;12.23;100.00;95576.13;5094361;28;20064;-78
2022/09/11 05:58:37;;;;;;;3.67;2.00;;;;;;;12.20;100.00;95574.06;5097520;28;20040;-77
2022/09/11 06:01:11;;;;;;;3.90;1.90;;;;;;;12.24;100.00;95580.34;5096887;28;20184;-78
2022/09/11 06:03:37;;;;;;;4.20;2.17;;;;;;;12.27;100.00;95579.78;5088108;28;20043;-77
2022/09/11 06:06:05;;;;;;;4.03;1.85;;;;;;;12.25;100.00;95581.91;5087591;28;20043;-78
2022/09/11 06:08:33;;;;;;;4.47;2.00;;;;;;;12.30;100.00;95581.88;5092492;28;20040;-77
2022/09/11 06:11:00;;;;;;;3.13;2.00;;;;;;;12.27;100.00;95590.34;5094931;28;20122;-78
2022/09/11 06:13:29;;;;;;;7.30;2.25;;;;;;;12.35;100.00;95593.44;5097824;28;20047;-77
2022/09/11 06:15:55;;;;;;;6.05;2.05;;;;;;;12.36;100.00;95597.66;5094900;28;20062;-78
2022/09/11 06:18:20;;;;;;;3.10;1.73;;;;;;;12.44;100.00;95594.41;5104773;28;20044;-78
2022/09/11 06:21:08;;;;;;;2.72;1.60;;;;;;;12.51;100.00;95594.88;5090018;28;20051;-78
2022/09/11 06:23:38;;;;;;;6.18;2.08;;;;;;;12.56;100.00;95605.38;5094206;28;20036;-78
2022/09/11 06:26:08;;;;;;;2.72;1.98;;;;;;;12.63;100.00;95603.19;5103391;28;20547;-79
2022/09/11 06:28:35;;;;;;;4.25;2.00;;;;;;;12.57;100.00;95593.75;5098879;28;20112;-78
2022/09/11 06:31:02;;;;;;;4.35;1.80;;;;;;;12.68;100.00;95598.94;5093286;28;20501;-78
2022/09/11 06:33:35;;;;;;;4.95;1.90;;;;;;;12.65;100.00;95611.63;5085990;28;20036;-78
2022/09/11 06:36:03;;;;;;;5.57;1.90;;;;;;;12.68;100.00;95604.22;5089630;28;20046;-78
2022/09/11 06:38:32;;;;;;;7.50;2.10;;;;;;;12.74;100.00;95608.38;5083978;28;20036;-77
2022/09/11 06:41:02;;;;;;;3.22;1.75;;;;;;;12.76;100.00;95606.25;5101478;28;20036;-78
2022/09/11 06:43:28;;;;;;;5.68;1.75;;;;;;;12.81;100.00;95609.63;5083518;28;20044;-77
2022/09/11 06:45:54;;;;;;;5.10;1.63;;;;;;;12.86;100.00;95610.63;5098521;28;20527;-77
2022/09/11 06:48:20;;;;;;;4.22;1.80;;;;;;;12.91;100.00;95614.00;5091157;28;20036;-77
2022/09/11 06:50:46;;;;;;;6.55;2.42;;;;;;;12.94;100.00;95617.94;5091177;28;20553;-77
2022/09/11 06:53:13;;;;;;;4.32;1.90;;;;;;;12.97;100.00;95620.81;5091847;28;20182;-77
2022/09/11 06:55:39;;;;;;;9.93;2.17;;;;;;;12.95;100.00;95620.28;5086475;28;20071;-77
2022/09/11 06:58:06;;;;;;;4.95;1.92;;;;;;;12.90;100.00;95612.44;5092460;28;20086;-79
2022/09/11 07:00:33;;;;;;;3.63;1.83;;;;;;;13.00;100.00;95617.59;5091652;28;20045;-80
2022/09/11 07:02:58;;;;;;;3.33;1.90;;;;;;;13.08;100.00;95618.03;5097073;28;20040;-78
2022/09/11 07:05:24;;;;;;;4.07;2.00;;;;;;;13.16;100.00;95622.72;5092929;28;20599;-77
2022/09/11 07:07:51;;;;;;;7.18;2.13;;;;;;;13.12;100.00;95619.06;5094862;28;20115;-77
2022/09/11 07:10:17;;;;;;;5.32;2.00;;;;;;;13.15;100.00;95623.78;5087738;28;20040;-78
2022/09/11 07:12:42;;;;;;;4.45;1.90;;;;;;;13.11;100.00;95622.75;5081615;28;20032;-79
2022/09/11 07:15:09;;;;;;;3.63;2.10;;;;;;;13.25;100.00;95623.66;5094234;28;20451;-82
2022/09/11 07:17:35;;;;;;;7.53;2.10;;;;;;;13.21;100.00;95617.34;5105123;28;20040;-77
2022/09/11 07:20:06;;;;;;;7.53;2.20;;;;;;;13.28;100.00;95622.31;5103124;28;20735;-78
2022/09/11 07:22:33;;;;;;;3.08;1.90;;;;;;;13.28;100.00;95617.78;5090083;28;20387;-79
2022/09/11 07:24:59;;;;;;;3.17;2.08;;;;;;;13.32;100.00;95629.38;5093443;28;20047;-77
2022/09/11 07:27:24;;;;;;;5.70;1.90;;;;;;;13.41;100.00;95631.44;5092296;28;20401;-78
2022/09/11 07:29:50;;;;;;;5.90;2.00;;;;;;;13.46;100.00;95639.28;5090837;28;20060;-78
2022/09/11 07:32:15;;;;;;;4.10;2.10;;;;;;;13.38;100.00;95634.63;5087085;28;20039;-78
2022/09/11 07:34:40;;;;;;;5.75;2.45;;;;;;;13.38;100.00;95642.56;5092557;28;20043;-77
2022/09/11 07:37:06;;;;;;;5.20;2.28;;;;;;;13.31;100.00;95648.16;5092135;28;20071;-78
2022/09/11 07:39:32;;;;;;;4.68;2.33;;;;;;;13.19;100.00;95640.63;5087315;28;20041;-77
2022/09/11 07:41:57;;;;;;;5.90;2.50;;;;;;;13.15;100.00;95642.28;5089000;28;20048;-78
2022/09/11 07:44:23;;;;;;;4.40;2.33;;;;;;;13.31;100.00;95648.16;5081759;28;20941;-77
2022/09/11 07:46:50;;;;;;;4.47;2.50;;;;;;;13.32;100.00;95650.53;5091711;28;20172;-77
2022/09/11 07:49:15;;;;;;;4.03;2.30;;;;;;;13.25;100.00;95655.38;5090097;28;20036;-80
2022/09/11 07:51:41;;;;;;;3.10;2.05;;;;;;;13.28;100.00;95654.78;5087942;28;20044;-81
2022/09/11 07:54:08;;;;;;;4.15;2.03;;;;;;;13.37;100.00;95656.84;5091185;28;20040;-78
2022/09/11 07:56:35;;;;;;;7.07;2.20;;;;;;;13.39;100.00;95665.28;5092153;28;20497;-77
2022/09/11 07:59:01;;;;;;;6.00;2.30;;;;;;;13.52;100.00;95665.38;5089493;28;21536;-75
2022/09/11 08:01:29;;;;;;;5.68;2.35;;;;;;;13.55;100.00;95663.22;5087562;28;20048;-77
2022/09/11 08:04:00;;;;;;;5.82;2.60;;;;;;;13.41;100.00;95668.44;5091917;28;20092;-77
2022/09/11 08:06:29;;;;;;;8.57;2.70;;;;;;;13.44;100.00;95673.16;5086337;28;20075;-78
2022/09/11 08:09:00;;;;;;;4.90;2.47;;;;;;;13.45;100.00;95674.72;5087274;28;20052;-78
2022/09/11 08:11:27;;;;;;;4.90;2.63;;;;;;;13.47;100.00;95668.06;5091381;28;20047;-76
2022/09/11 08:13:54;;;;;;;6.50;3.15;;;;;;;13.57;100.00;95677.72;5088461;28;20032;-77
2022/09/11 08:16:21;;;;;;;6.90;2.90;;;;;;;13.63;100.00;95673.97;5090649;28;20048;-76
2022/09/11 08:18:47;;;;;;;8.25;3.28;;;;;;;13.73;100.00;95680.19;5091623;28;20047;-77
2022/09/11 08:21:13;;;;;;;8.40;3.30;;;;;;;13.81;100.00;95676.91;5090980;28;20059;-85
2022/09/11 08:23:41;;;;;;;4.22;2.63;;;;;;;13.90;100.00;95685.78;5090030;28;20116;-83
2022/09/11 08:26:08;;;;;;;6.40;3.08;;;;;;;13.80;100.00;95685.91;5089289;28;20073;-78
2022/09/11 08:28:36;;;;;;;7.85;2.90;;;;;;;13.92;100.00;95688.94;5090576;28;20040;-77
2022/09/11 08:31:03;;;;;;;4.70;2.63;;;;;;;13.99;100.00;95694.66;5096063;28;20079;-76
2022/09/11 08:33:29;;;;;;;5.60;2.95;;;;;;;13.96;100.00;95695.19;5086714;28;20041;-76
2022/09/11 08:35:56;;;;;;;4.43;2.78;;;;;;;14.09;100.00;95692.91;5089486;28;20054;-78
2022/09/11 08:38:22;;;;;;;6.25;3.00;;;;;;;14.11;100.00;95701.38;5088101;28;20047;-77
2022/09/11 08:40:48;;;;;;;7.15;3.17;;;;;;;14.01;100.00;95707.59;5085531;28;20037;-76
2022/09/11 08:43:21;;;;;;;8.05;2.92;;;;;;;14.03;100.00;95706.22;5082927;28;20041;-78
2022/09/11 08:45:48;;;;;;;6.53;3.38;;;;;;;13.85;100.00;95704.38;5091163;28;20047;-77
2022/09/11 08:48:13;;;;;;;5.82;2.97;;;;;;;14.06;100.00;95709.38;5090931;28;20039;-80
2022/09/11 08:50:42;;;;;;;6.20;3.28;;;;;;;14.14;100.00;95706.09;5091323;28;20382;-79
2022/09/11 08:53:17;;;;;;;6.10;3.15;;;;;;;14.12;100.00;95702.94;5085632;28;20616;-78
2022/09/11 08:55:51;;;;;;;9.48;3.83;;;;;;;14.21;100.00;95717.09;5090639;28;20043;-77
2022/09/11 08:58:31;;;;;;;7.37;3.67;;;;;;;14.33;100.00;95717.44;5089010;28;20565;-76
2022/09/11 09:01:11;;;;;;;8.10;3.35;;;;;;;14.25;100.00;95712.00;5087247;28;20039;-80
2022/09/11 09:04:00;;;;;;;8.25;3.50;;;;;;;14.44;100.00;95719.91;5090421;28;20040;-77
2022/09/11 09:06:45;;;;;;;5.70;3.28;;;;;;;14.47;100.00;95708.78;5087897;28;20496;-81
2022/09/11 09:09:11;;;;;;;5.45;3.53;;;;;;;14.59;100.00;95719.69;5085747;28;20054;-77
2022/09/11 09:11:58;;;;;;;5.82;3.13;;;;;;;14.49;100.00;95723.28;5089488;28;20085;-77
2022/09/11 09:14:57;;;;;;;5.18;3.08;;;;;;;14.61;100.00;95730.00;5089607;28;20134;-77
2022/09/11 09:17:28;;;;;;;7.25;3.47;;;;;;;14.53;100.00;95723.50;5090667;28;20096;-76
2022/09/11 09:20:02;;;;;;;6.07;3.45;;;;;;;14.59;100.00;95727.63;5089411;28;20097;-77
2022/09/11 09:22:41;;;;;;;5.55;3.05;;;;;;;14.68;100.00;95725.94;5085669;28;20051;-76
2022/09/11 09:25:11;;;;;;;5.68;3.67;;;;;;;14.84;100.00;95728.31;5091317;28;20115;-77
2022/09/11 09:27:46;;;;;;;5.40;3.50;;;;;;;14.90;100.00;95729.81;5088674;28;20047;-76
2022/09/11 09:30:15;;;;;;;5.97;3.20;;;;;;;14.98;100.00;95729.13;5087261;28;20119;-77
2022/09/11 09:33:00;;;;;;;6.65;3.90;;;;;;;14.96;100.00;95726.00;5084581;28;20502;-76
2022/09/11 09:35:34;;;;;;;5.22;3.35;;;;;;;15.06;100.00;95727.69;5088301;28;20040;-76
2022/09/11 09:38:00;;;;;;;7.15;3.60;;;;;;;14.93;100.00;95716.00;5087897;28;20654;-77
2022/09/11 09:40:28;;;;;;;7.18;3.83;;;;;;;14.76;100.00;95721.06;5073718;28;20041;-77
2022/09/11 09:43:13;;;;;;;5.82;3.38;;;;;;;14.70;100.00;95723.00;5083622;28;20472;-76
2022/09/11 09:45:48;;;;;;;7.50;3.88;;;;;;;14.79;100.00;95725.78;5074722;28;20040;-75
2022/09/11 09:48:14;;;;;;;5.97;3.78;;;;;;;14.53;100.00;95724.28;5089548;28;20490;-76
2022/09/11 09:50:42;;;;;;;7.05;3.70;;;;;;;14.44;100.00;95733.16;5084685;28;20036;-75
2022/09/11 09:53:32;;;;;;;6.63;3.85;;;;;;;14.55;100.00;95731.94;5085090;28;20036;-75
2022/09/11 09:55:59;;;;;;;8.68;4.68;;;;;;;14.51;100.00;95730.94;5088525;28;20497;-76
2022/09/11 09:58:31;;;;;;;8.70;4.40;;;;;;;14.45;100.00;95726.81;5084655;28;20043;-76
2022/09/11 10:00:56;;;;;;;8.02;4.05;;;;;;;14.29;100.00;95729.66;5072199;28;20090;-75
2022/09/11 10:03:24;;;;;;;8.10;3.85;;;;;;;14.33;100.00;95730.66;5089718;28;20048;-77
2022/09/11 10:05:53;;;;;;;9.25;4.38;;;;;;;14.60;100.00;95731.88;5089508;28;20067;-79
2022/09/11 10:08:33;;;;;;;6.20;3.95;;;;;;;14.78;100.00;95729.50;5089117;28;20119;-78
2022/09/11 10:11:04;;;;;;;6.95;4.00;;;;;;;14.85;100.00;95729.91;5089122;28;20047;-76
2022/09/11 10:13:32;;;;;;;6.32;4.03;;;;;;;15.00;100.00;95734.94;5082198;28;20497;-77
2022/09/11 10:16:02;;;;;;;6.88;3.95;;;;;;;14.99;100.00;95737.88;5087252;28;20093;-76
2022/09/11 10:18:28;;;;;;;10.05;3.88;;;;;;;14.89;100.00;95730.91;5084814;28;20036;-76
2022/09/11 10:21:11;;;;;;;6.82;3.63;;;;;;;14.59;100.00;95727.63;5082917;28;20051;-78
2022/09/11 10:23:53;;;;;;;6.88;3.70;;;;;;;14.63;100.00;95736.59;5088324;28;20075;-79
2022/09/11 10:26:27;;;;;;;7.60;4.30;;;;;;;14.61;100.00;95736.09;5085064;28;20422;-77
2022/09/11 10:28:57;;;;;;;5.60;3.80;;;;;;;14.45;100.00;95740.03;5087046;28;20055;-76
2022/09/11 10:31:23;;;;;;;5.30;3.80;;;;;;;14.24;100.00;95742.19;5084941;28;20041;-76
2022/09/11 10:33:55;;;;;;;6.35;4.32;;;;;;;14.02;100.00;95736.41;5086037;28;20447;-81
2022/09/11 10:36:24;;;;;;;8.55;4.78;;;;;;;13.98;100.00;95743.34;5079069;28;20128;-78
2022/09/11 10:38:50;;;;;;;8.65;4.72;;;;;;;14.03;100.00;95748.53;5086449;28;20040;-77
2022/09/11 10:41:26;;;;;;;8.75;4.68;;;;;;;13.83;100.00;95738.25;5087145;28;20051;-76
2022/09/11 10:44:09;;;;;;;8.52;5.15;;;;;;;13.83;100.00;95748.81;5082323;28;20551;-76
2022/09/11 10:46:39;;;;;;;8.20;4.97;;;;;;;13.71;100.00;95751.09;5087651;28;20036;-82
2022/09/11 10:49:04;;;;;;;8.75;5.25;;;;;;;13.86;100.00;95753.53;5089665;28;20097;-76
2022/09/11 10:51:33;;;;;;;7.88;5.32;;;;;;;13.85;100.00;95763.34;5083088;28;20037;-77
2022/09/11 10:54:26;;;;;;;11.27;5.60;;;;;;;13.98;100.00;95761.88;5088658;28;20062;-80
2022/09/11 10:56:56;;;;;;;8.40;5.53;;;;;;;14.36;100.00;95767.16;5092184;28;20046;-84
2022/09/11 10:59:33;;;;;;;11.63;5.70;;;;;;;14.53;100.00;95755.28;5091249;28;20051;-78
2022/09/11 11:01:59;;;;;;;10.63;6.00;;;;;;;15.28;100.00;95758.84;5089554;28;20080;-77
2022/09/11 11:04:29;;;;;;;8.15;5.13;;;;;;;15.42;100.00;95759.63;5093647;28;20101;-77
2022/09/11 11:07:13;;;;;;;9.00;5.63;;;;;;;15.60;100.00;95754.53;5098679;28;20078;-78
2022/09/11 11:09:56;;;;;;;8.30;5.20;;;;;;;16.02;100.00;95755.31;5095766;28;20036;-77
2022/09/11 11:13:01;;;;;;;9.15;5.18;;;;;;;16.30;100.00;95765.88;5101073;28;20045;-77
2022/09/11 11:15:49;;;;;;;8.32;4.18;;;;;;;15.92;100.00;95760.84;5027491;28;20147;-76
2022/09/11 11:18:46;;;;;;;7.63;4.28;;;;;;;15.57;100.00;95766.53;5088528;28;20047;-76
2022/09/11 11:21:34;;;;;;;7.47;4.20;;;;;;;15.42;100.00;95764.94;5090576;28;20051;-76
2022/09/11 11:24:11;;;;;;;7.22;3.95;;;;;;;15.16;100.00;95761.97;5090778;28;20040;-77
2022/09/11 11:26:52;;;;;;;5.82;4.00;;;;;;;15.22;100.00;95766.09;5083602;28;20302;-76
2022/09/11 11:29:36;;;;;;;8.45;4.28;;;;;;;14.98;100.00;95754.84;5091146;28;20087;-78
2022/09/11 11:32:09;;;;;;;6.85;4.28;;;;;;;14.96;100.00;95763.09;5090638;28;20044;-76
2022/09/11 11:35:00;;;;;;;11.10;5.05;;;;;;;14.93;100.00;95766.34;5081972;28;20048;-77
2022/09/11 11:37:34;;;;;;;10.02;5.25;;;;;;;15.60;100.00;95770.44;5114719;28;20130;-79
2022/09/11 11:40:17;;;;;;;7.43;5.18;;;;;;;15.41;100.00;95774.00;5087392;28;20039;-78
2022/09/11 11:42:51;;;;;;;7.15;4.38;;;;;;;15.49;100.00;95785.00;5086142;28;20051;-78